createdAt,value
2023-04-18T00:00:10.785Z,13.52
2023-04-18T00:00:23.405Z,13.02
2023-04-18T00:00:35.348Z,13.68
2023-04-18T00:00:48.933Z,12.70
2023-04-18T00:01:01.793Z,11.15
2023-04-18T00:01:14.883Z,11.88
2023-04-18T00:01:26.796Z,12.23
2023-04-18T00:01:39.023Z,14.02
2023-04-18T00:01:51.720Z,15.13
2023-04-18T00:02:03.844Z,14.07
2023-04-18T00:02:17.407Z,13.30
2023-04-18T00:02:29.667Z,12.18
2023-04-18T00:02:44.059Z,12.13
2023-04-18T00:02:56.480Z,13.43
2023-04-18T00:03:09.737Z,13.45
2023-04-18T00:03:22.053Z,13.43
2023-04-18T00:03:34.786Z,14.35
2023-04-18T00:03:47.173Z,15.43
2023-04-18T00:03:59.393Z,13.98
2023-04-18T00:04:12.353Z,13.82
2023-04-18T00:04:25.266Z,12.35
2023-04-18T00:04:37.567Z,13.45
2023-04-18T00:04:50.444Z,13.88
2023-04-18T00:05:04.163Z,14.40
2023-04-18T00:05:18.113Z,13.07
2023-04-18T00:05:30.192Z,12.90
2023-04-18T00:05:43.982Z,12.63
2023-04-18T00:05:56.136Z,12.90
2023-04-18T00:06:08.050Z,12.05
2023-04-18T00:06:22.145Z,11.70
2023-04-18T00:06:35.977Z,12.30
2023-04-18T00:06:51.324Z,11.57
2023-04-18T00:07:03.263Z,12.82
2023-04-18T00:07:16.254Z,14.07
2023-04-18T00:07:28.180Z,13.40
2023-04-18T00:07:40.176Z,14.57
2023-04-18T00:07:52.740Z,14.50
2023-04-18T00:08:05.346Z,13.13
2023-04-18T00:08:17.380Z,12.68
2023-04-18T00:08:29.302Z,12.25
2023-04-18T00:08:41.261Z,11.85
2023-04-18T00:08:53.302Z,12.27
2023-04-18T00:09:05.484Z,12.57
2023-04-18T00:09:17.497Z,13.30
2023-04-18T00:09:29.566Z,14.25
2023-04-18T00:09:42.083Z,14.90
2023-04-18T00:09:54.056Z,13.70
2023-04-18T00:10:06.770Z,14.43
2023-04-18T00:10:18.904Z,14.70
2023-04-18T00:10:30.865Z,14.57
2023-04-18T00:10:42.792Z,15.43
2023-04-18T00:10:54.783Z,14.55
2023-04-18T00:11:06.963Z,13.43
2023-04-18T00:11:18.976Z,12.95
2023-04-18T00:11:30.857Z,13.35
2023-04-18T00:11:42.765Z,13.35
2023-04-18T00:11:54.646Z,13.60
2023-04-18T00:12:06.837Z,14.52
2023-04-18T00:12:18.818Z,13.68
2023-04-18T00:12:31.871Z,14.48
2023-04-18T00:12:43.932Z,14.52
2023-04-18T00:12:55.908Z,14.40
2023-04-18T00:13:07.838Z,15.45
2023-04-18T00:13:19.766Z,14.00
2023-04-18T00:13:32.553Z,14.13
2023-04-18T00:13:47.331Z,15.05
2023-04-18T00:13:59.396Z,14.93
2023-04-18T00:14:11.791Z,12.90
2023-04-18T00:14:24.623Z,12.77
2023-04-18T00:14:37.782Z,13.35
2023-04-18T00:14:52.591Z,14.60
2023-04-18T00:15:07.243Z,16.08
2023-04-18T00:15:19.237Z,14.73
2023-04-18T00:15:31.269Z,13.88
2023-04-18T00:15:44.786Z,14.45
2023-04-18T00:15:57.215Z,14.40
2023-04-18T00:16:09.137Z,13.68
2023-04-18T00:16:22.266Z,15.45
2023-04-18T00:16:34.278Z,16.33
2023-04-18T00:16:46.750Z,15.93
2023-04-18T00:16:58.785Z,15.40
2023-04-18T00:17:11.026Z,14.20
2023-04-18T00:17:23.144Z,13.02
2023-04-18T00:17:35.726Z,13.30
2023-04-18T00:17:48.219Z,15.30
2023-04-18T00:18:00.714Z,16.83
2023-04-18T00:18:16.995Z,16.15
2023-04-18T00:18:28.889Z,14.02
2023-04-18T00:18:40.880Z,13.27
2023-04-18T00:18:53.749Z,14.00
2023-04-18T00:19:06.174Z,16.25
2023-04-18T00:19:18.798Z,16.33
2023-04-18T00:19:30.704Z,14.27
2023-04-18T00:19:43.194Z,13.73
2023-04-18T00:19:56.328Z,13.02
2023-04-18T00:20:12.596Z,13.15
2023-04-18T00:20:26.153Z,12.45
2023-04-18T00:20:39.151Z,13.43
2023-04-18T00:20:51.058Z,14.00
2023-04-18T00:21:03.795Z,13.85
2023-04-18T00:21:16.778Z,14.77
2023-04-18T00:21:30.044Z,15.43
2023-04-18T00:21:44.733Z,13.45
2023-04-18T00:21:58.008Z,13.32
2023-04-18T00:22:11.233Z,13.63
2023-04-18T00:22:23.329Z,14.88
2023-04-18T00:22:35.701Z,16.25
2023-04-18T00:22:47.803Z,16.15
2023-04-18T00:23:00.667Z,14.70
2023-04-18T00:23:13.890Z,13.43
2023-04-18T00:23:27.908Z,16.05
2023-04-18T00:23:39.853Z,17.30
2023-04-18T00:23:51.885Z,16.17
2023-04-18T00:24:03.989Z,13.20
2023-04-18T00:24:16.628Z,13.30
2023-04-18T00:24:28.764Z,13.38
2023-04-18T00:24:40.696Z,12.68
2023-04-18T00:24:52.601Z,14.60
2023-04-18T00:25:04.862Z,14.55
2023-04-18T00:25:16.750Z,14.02
2023-04-18T00:25:28.746Z,14.10
2023-04-18T00:25:41.223Z,13.80
2023-04-18T00:25:53.263Z,14.23
2023-04-18T00:26:05.273Z,14.18
2023-04-18T00:26:17.358Z,13.35
2023-04-18T00:26:29.254Z,12.63
2023-04-18T00:26:41.240Z,13.98
2023-04-18T00:26:53.154Z,13.40
2023-04-18T00:27:05.767Z,12.63
2023-04-18T00:27:18.438Z,12.25
2023-04-18T00:27:30.314Z,12.30
2023-04-18T00:27:42.231Z,12.35
2023-04-18T00:27:54.129Z,13.45
2023-04-18T00:28:06.185Z,14.88
2023-04-18T00:28:18.056Z,14.03
2023-04-18T00:28:30.054Z,12.20
2023-04-18T00:28:42.069Z,12.07
2023-04-18T00:28:54.048Z,12.27
2023-04-18T00:29:06.027Z,13.05
2023-04-18T00:29:17.982Z,13.07
2023-04-18T00:29:31.694Z,14.10
2023-04-18T00:29:43.699Z,14.18
2023-04-18T00:29:55.630Z,13.43
2023-04-18T00:30:08.976Z,13.18
2023-04-18T00:30:21.246Z,12.32
2023-04-18T00:30:33.439Z,13.68
2023-04-18T00:30:45.548Z,14.85
2023-04-18T00:30:57.655Z,16.67
2023-04-18T00:31:09.678Z,16.02
2023-04-18T00:31:21.796Z,14.13
2023-04-18T00:31:33.747Z,12.45
2023-04-18T00:31:45.694Z,12.02
2023-04-18T00:31:58.076Z,12.55
2023-04-18T00:32:10.124Z,13.48
2023-04-18T00:32:22.046Z,15.20
2023-04-18T00:32:34.022Z,15.48
2023-04-18T00:32:45.973Z,13.48
2023-04-18T00:32:57.956Z,14.75
2023-04-18T00:33:09.931Z,15.52
2023-04-18T00:33:21.841Z,14.02
2023-04-18T00:33:34.456Z,13.48
2023-04-18T00:33:46.390Z,14.00
2023-04-18T00:33:58.367Z,15.15
2023-04-18T00:34:10.557Z,14.65
2023-04-18T00:34:22.513Z,14.52
2023-04-18T00:34:34.727Z,15.45
2023-04-18T00:34:46.651Z,15.60
2023-04-18T00:34:58.612Z,15.52
2023-04-18T00:35:10.636Z,14.30
2023-04-18T00:35:22.743Z,14.45
2023-04-18T00:35:34.691Z,15.60
2023-04-18T00:35:46.576Z,14.50
2023-04-18T00:35:58.537Z,14.23
2023-04-18T00:36:10.728Z,13.75
2023-04-18T00:36:22.686Z,16.55
2023-04-18T00:36:34.629Z,15.98
2023-04-18T00:36:46.551Z,14.57
2023-04-18T00:36:58.488Z,12.75
2023-04-18T00:37:15.754Z,12.60
2023-04-18T00:37:27.781Z,12.73
2023-04-18T00:37:39.778Z,13.90
2023-04-18T00:37:51.835Z,14.40
2023-04-18T00:38:03.819Z,14.88
2023-04-18T00:38:15.753Z,14.35
2023-04-18T00:38:27.692Z,14.27
2023-04-18T00:38:39.639Z,13.40
2023-04-18T00:38:51.542Z,13.85
2023-04-18T00:39:03.460Z,12.90
2023-04-18T00:39:15.420Z,13.65
2023-04-18T00:39:27.379Z,13.65
2023-04-18T00:39:39.315Z,14.18
2023-04-18T00:39:53.750Z,13.88
2023-04-18T00:40:06.599Z,13.43
2023-04-18T00:40:18.580Z,14.23
2023-04-18T00:40:30.587Z,14.57
2023-04-18T00:40:43.032Z,15.82
2023-04-18T00:40:55.028Z,16.33
2023-04-18T00:41:07.037Z,14.43
2023-04-18T00:41:20.183Z,14.35
2023-04-18T00:41:32.311Z,12.82
2023-04-18T00:41:44.197Z,13.68
2023-04-18T00:41:56.140Z,13.85
2023-04-18T00:42:08.063Z,14.13
2023-04-18T00:42:27.890Z,13.07
2023-04-18T00:42:39.798Z,14.40
2023-04-18T00:42:51.671Z,15.43
2023-04-18T00:43:03.646Z,15.18
2023-04-18T00:43:16.881Z,14.48
2023-04-18T00:43:28.825Z,15.15
2023-04-18T00:43:40.751Z,15.57
2023-04-18T00:43:53.492Z,15.68
2023-04-18T00:44:05.608Z,14.95
2023-04-18T00:44:17.658Z,14.98
2023-04-18T00:44:30.947Z,15.00
2023-04-18T00:44:42.834Z,16.73
2023-04-18T00:44:54.874Z,15.48
2023-04-18T00:45:07.267Z,16.05
2023-04-18T00:45:19.422Z,14.30
2023-04-18T00:45:31.546Z,15.00
2023-04-18T00:45:44.077Z,14.52
2023-04-18T00:45:57.068Z,14.63
2023-04-18T00:46:10.758Z,14.27
2023-04-18T00:46:22.856Z,14.38
2023-04-18T00:46:34.917Z,13.48
2023-04-18T00:46:47.144Z,13.00
2023-04-18T00:46:59.258Z,12.73
2023-04-18T00:47:11.203Z,13.38
2023-04-18T00:47:23.390Z,13.90
2023-04-18T00:47:35.389Z,13.75
2023-04-18T00:47:47.440Z,13.63
2023-04-18T00:47:59.498Z,14.25
2023-04-18T00:48:11.607Z,14.32
2023-04-18T00:48:24.250Z,15.05
2023-04-18T00:48:38.914Z,15.40
2023-04-18T00:48:50.999Z,13.95
2023-04-18T00:49:03.149Z,12.50
2023-04-18T00:49:15.571Z,13.50
2023-04-18T00:49:27.930Z,15.20
2023-04-18T00:49:39.901Z,15.13
2023-04-18T00:49:51.965Z,14.63
2023-04-18T00:50:04.200Z,13.95
2023-04-18T00:50:16.485Z,13.38
2023-04-18T00:50:28.576Z,14.10
2023-04-18T00:50:41.524Z,16.40
2023-04-18T00:50:53.908Z,16.42
2023-04-18T00:51:07.523Z,14.48
2023-04-18T00:51:19.999Z,12.52
2023-04-18T00:51:34.374Z,12.88
2023-04-18T00:51:47.185Z,12.82
2023-04-18T00:51:59.424Z,14.55
2023-04-18T00:52:15.404Z,14.15
2023-04-18T00:52:30.718Z,13.07
2023-04-18T00:52:44.559Z,15.02
2023-04-18T00:52:56.710Z,15.70
2023-04-18T00:53:10.689Z,14.05
2023-04-18T00:53:22.892Z,13.45
2023-04-18T00:53:35.324Z,14.32
2023-04-18T00:53:47.475Z,13.40
2023-04-18T00:53:59.415Z,13.93
2023-04-18T00:54:13.445Z,13.63
2023-04-18T00:54:27.260Z,13.02
2023-04-18T00:54:40.704Z,13.38
2023-04-18T00:54:52.912Z,13.45
2023-04-18T00:55:07.137Z,13.85
2023-04-18T00:55:20.147Z,14.20
2023-04-18T00:55:32.222Z,14.45
2023-04-18T00:55:44.489Z,16.10
2023-04-18T00:55:56.725Z,15.35
2023-04-18T00:56:08.736Z,13.98
2023-04-18T00:56:21.578Z,12.85
2023-04-18T00:56:34.691Z,14.73
2023-04-18T00:56:47.236Z,15.20
2023-04-18T00:56:59.582Z,13.98
2023-04-18T00:57:12.963Z,13.63
2023-04-18T00:57:25.104Z,13.95
2023-04-18T00:57:37.473Z,13.82
2023-04-18T00:57:49.921Z,13.23
2023-04-18T00:58:02.028Z,13.55
2023-04-18T00:58:14.615Z,13.75
2023-04-18T00:58:26.698Z,14.07
2023-04-18T00:58:40.551Z,13.82
2023-04-18T00:58:52.812Z,14.18
2023-04-18T00:59:06.359Z,14.77
2023-04-18T00:59:18.559Z,14.93
2023-04-18T00:59:30.487Z,14.88
2023-04-18T00:59:42.836Z,14.95
2023-04-18T00:59:54.975Z,15.95
2023-04-18T01:00:10.680Z,16.25
2023-04-18T01:00:22.771Z,15.90
2023-04-18T01:00:34.796Z,16.17
2023-04-18T01:00:47.630Z,15.27
2023-04-18T01:00:59.680Z,15.45
2023-04-18T01:01:13.372Z,14.90
2023-04-18T01:01:25.536Z,14.93
2023-04-18T01:01:37.581Z,13.73
2023-04-18T01:01:49.578Z,12.45
2023-04-18T01:02:03.864Z,15.10
2023-04-18T01:02:17.256Z,15.48
2023-04-18T01:02:30.399Z,13.18
2023-04-18T01:02:47.102Z,13.82
2023-04-18T01:02:59.656Z,14.15
2023-04-18T01:03:14.300Z,14.88
2023-04-18T01:03:26.580Z,14.40
2023-04-18T01:03:39.501Z,14.60
2023-04-18T01:03:51.991Z,15.18
2023-04-18T01:04:04.280Z,15.82
2023-04-18T01:04:16.860Z,14.77
2023-04-18T01:04:30.043Z,13.45
2023-04-18T01:04:44.968Z,14.68
2023-04-18T01:04:58.614Z,14.27
2023-04-18T01:05:10.624Z,12.38
2023-04-18T01:05:23.305Z,12.38
2023-04-18T01:05:36.242Z,12.85
2023-04-18T01:05:48.436Z,14.88
2023-04-18T01:06:01.064Z,14.80
2023-04-18T01:06:12.975Z,13.27
2023-04-18T01:06:26.811Z,13.20
2023-04-18T01:06:39.133Z,13.32
2023-04-18T01:06:51.267Z,12.52
2023-04-18T01:07:03.360Z,12.40
2023-04-18T01:07:15.379Z,13.88
2023-04-18T01:07:27.356Z,14.93
2023-04-18T01:07:42.319Z,15.57
2023-04-18T01:08:00.294Z,15.38
2023-04-18T01:08:12.816Z,15.85
2023-04-18T01:08:25.503Z,13.30
2023-04-18T01:08:37.571Z,12.40
2023-04-18T01:08:49.532Z,12.10
2023-04-18T01:09:02.164Z,12.55
2023-04-18T01:09:14.203Z,12.95
2023-04-18T01:09:26.608Z,13.25
2023-04-18T01:09:39.128Z,12.88
2023-04-18T01:09:52.469Z,13.43
2023-04-18T01:10:05.080Z,14.55
2023-04-18T01:10:17.056Z,15.05
2023-04-18T01:10:30.482Z,14.95
2023-04-18T01:10:42.452Z,14.55
2023-04-18T01:10:54.432Z,14.20
2023-04-18T01:11:06.467Z,13.20
2023-04-18T01:11:18.410Z,14.23
2023-04-18T01:11:30.311Z,14.68
2023-04-18T01:11:42.199Z,13.55
2023-04-18T01:11:54.154Z,13.05
2023-04-18T01:12:06.222Z,13.13
2023-04-18T01:12:18.163Z,13.35
2023-04-18T01:12:30.404Z,13.10
2023-04-18T01:12:42.398Z,13.65
2023-04-18T01:13:21.797Z,13.10
2023-04-18T01:13:33.793Z,13.98
2023-04-18T01:14:01.489Z,13.32
2023-04-18T01:14:13.723Z,15.27
2023-04-18T01:14:25.945Z,15.05
2023-04-18T01:14:41.612Z,14.80
2023-04-18T01:14:53.546Z,14.13
2023-04-18T01:15:06.569Z,13.40
2023-04-18T01:15:18.542Z,15.43
2023-04-18T01:15:30.556Z,15.10
2023-04-18T01:15:43.858Z,14.48
2023-04-18T01:15:55.942Z,14.52
2023-04-18T01:16:08.014Z,14.13
2023-04-18T01:16:19.947Z,14.00
2023-04-18T01:16:37.044Z,14.45
2023-04-18T01:16:49.171Z,14.82
2023-04-18T01:17:01.491Z,15.23
2023-04-18T01:17:13.624Z,14.63
2023-04-18T01:17:28.283Z,14.70
2023-04-18T01:17:40.821Z,14.65
2023-04-18T01:17:53.438Z,14.95
2023-04-18T01:18:07.558Z,14.80
2023-04-18T01:18:20.738Z,15.25
2023-04-18T01:18:35.033Z,14.80
2023-04-18T01:18:47.056Z,14.70
2023-04-18T01:19:03.604Z,15.48
2023-04-18T01:19:19.196Z,14.30
2023-04-18T01:19:31.136Z,15.35
2023-04-18T01:19:43.117Z,15.70
2023-04-18T01:19:55.080Z,14.82
2023-04-18T01:20:07.875Z,14.38
2023-04-18T01:20:21.735Z,15.13
2023-04-18T01:20:35.081Z,14.85
2023-04-18T01:20:49.727Z,15.27
2023-04-18T01:21:01.869Z,15.32
2023-04-18T01:21:14.616Z,14.75
2023-04-18T01:21:26.825Z,14.07
2023-04-18T01:21:43.724Z,14.02
2023-04-18T01:21:55.737Z,14.13
2023-04-18T01:22:08.541Z,13.93
2023-04-18T01:22:20.553Z,13.38
2023-04-18T01:22:33.240Z,13.30
2023-04-18T01:22:45.142Z,14.10
2023-04-18T01:22:58.215Z,14.07
2023-04-18T01:23:13.074Z,14.82
2023-04-18T01:23:25.020Z,15.70
2023-04-18T01:23:37.453Z,14.73
2023-04-18T01:23:50.618Z,15.27
2023-04-18T01:24:11.866Z,15.10
2023-04-18T01:24:26.662Z,14.98
2023-04-18T01:24:39.188Z,16.27
2023-04-18T01:24:51.110Z,15.05
2023-04-18T01:25:07.451Z,13.60
2023-04-18T01:25:19.378Z,14.43
2023-04-18T01:25:31.420Z,13.95
2023-04-18T01:25:45.388Z,14.77
2023-04-18T01:25:57.594Z,16.15
2023-04-18T01:26:09.583Z,15.38
2023-04-18T01:26:21.511Z,14.00
2023-04-18T01:26:33.487Z,14.13
2023-04-18T01:26:49.197Z,14.82
2023-04-18T01:27:03.378Z,14.75
2023-04-18T01:27:15.550Z,14.75
2023-04-18T01:27:27.523Z,14.73
2023-04-18T01:27:39.455Z,14.88
2023-04-18T01:27:51.531Z,14.20
2023-04-18T01:28:04.536Z,14.30
2023-04-18T01:28:18.454Z,16.70
2023-04-18T01:28:30.422Z,16.95
2023-04-18T01:28:42.323Z,14.70
2023-04-18T01:28:54.285Z,14.20
2023-04-18T01:29:06.484Z,14.75
2023-04-18T01:29:18.484Z,15.13
2023-04-18T01:29:30.494Z,15.80
2023-04-18T01:29:42.426Z,14.57
2023-04-18T01:29:54.455Z,13.32
2023-04-18T01:30:07.145Z,13.48
2023-04-18T01:30:19.119Z,14.05
2023-04-18T01:30:31.046Z,13.73
2023-04-18T01:30:42.961Z,14.43
2023-04-18T01:30:54.916Z,14.60
2023-04-18T01:31:06.991Z,16.58
2023-04-18T01:31:19.003Z,15.77
2023-04-18T01:31:34.141Z,15.77
2023-04-18T01:31:46.361Z,14.57
2023-04-18T01:31:58.476Z,14.73
2023-04-18T01:32:10.434Z,15.10
2023-04-18T01:32:22.462Z,14.25
2023-04-18T01:32:34.535Z,15.13
2023-04-18T01:32:46.636Z,15.73
2023-04-18T01:32:59.898Z,15.43
2023-04-18T01:33:11.925Z,13.65
2023-04-18T01:33:23.849Z,12.80
2023-04-18T01:33:35.901Z,13.13
2023-04-18T01:33:47.848Z,13.38
2023-04-18T01:33:59.723Z,13.77
2023-04-18T01:34:11.847Z,13.82
2023-04-18T01:34:23.953Z,13.88
2023-04-18T01:34:36.066Z,14.48
2023-04-18T01:34:48.025Z,13.95
2023-04-18T01:34:59.909Z,13.02
2023-04-18T01:35:11.927Z,13.75
2023-04-18T01:35:23.901Z,14.23
2023-04-18T01:35:35.895Z,14.35
2023-04-18T01:35:47.908Z,13.77
2023-04-18T01:35:59.815Z,14.75
2023-04-18T01:36:11.802Z,14.73
2023-04-18T01:36:23.699Z,14.60
2023-04-18T01:36:36.587Z,15.75
2023-04-18T01:36:48.668Z,14.10
2023-04-18T01:37:00.748Z,13.10
2023-04-18T01:37:12.646Z,13.45
2023-04-18T01:37:24.585Z,13.25
2023-04-18T01:37:36.471Z,14.13
2023-04-18T01:37:48.455Z,13.95
2023-04-18T01:38:00.605Z,14.20
2023-04-18T01:38:12.595Z,14.57
2023-04-18T01:38:24.496Z,15.07
2023-04-18T01:38:36.408Z,15.30
2023-04-18T01:38:48.335Z,14.85
2023-04-18T01:39:00.611Z,14.23
2023-04-18T01:39:13.408Z,14.82
2023-04-18T01:39:25.385Z,15.40
2023-04-18T01:39:37.319Z,14.88
2023-04-18T01:39:49.286Z,16.40
2023-04-18T01:40:01.401Z,14.93
2023-04-18T01:40:13.486Z,14.95
2023-04-18T01:40:25.810Z,13.70
2023-04-18T01:40:37.750Z,14.75
2023-04-18T01:40:49.649Z,14.82
2023-04-18T01:41:02.431Z,13.68
2023-04-18T01:41:14.382Z,12.90
2023-04-18T01:41:29.039Z,12.80
2023-04-18T01:41:43.602Z,13.90
2023-04-18T01:41:55.492Z,14.07
2023-04-18T01:42:07.449Z,14.95
2023-04-18T01:42:19.344Z,16.58
2023-04-18T01:42:31.312Z,15.50
2023-04-18T01:42:43.289Z,15.82
2023-04-18T01:42:55.420Z,14.40
2023-04-18T01:43:07.310Z,16.08
2023-04-18T01:43:19.262Z,16.88
2023-04-18T01:43:33.819Z,15.18
2023-04-18T01:43:46.061Z,11.93
2023-04-18T01:43:58.823Z,12.77
2023-04-18T01:44:10.928Z,13.82
2023-04-18T01:44:22.910Z,14.27
2023-04-18T01:44:34.959Z,14.73
2023-04-18T01:44:46.916Z,14.10
2023-04-18T01:44:58.840Z,13.57
2023-04-18T01:45:12.171Z,13.77
2023-04-18T01:45:24.296Z,13.57
2023-04-18T01:45:36.312Z,13.50
2023-04-18T01:45:48.334Z,13.93
2023-04-18T01:46:00.328Z,13.60
2023-04-18T01:46:12.335Z,13.48
2023-04-18T01:46:24.434Z,13.02
2023-04-18T01:46:36.659Z,13.68
2023-04-18T01:46:48.688Z,14.85
2023-04-18T01:47:00.754Z,14.98
2023-04-18T01:47:12.726Z,13.63
2023-04-18T01:47:24.678Z,13.27
2023-04-18T01:47:36.693Z,14.15
2023-04-18T01:47:48.629Z,14.07
2023-04-18T01:48:00.652Z,14.48
2023-04-18T01:48:12.628Z,16.00
2023-04-18T01:48:24.519Z,15.90
2023-04-18T01:48:36.463Z,16.52
2023-04-18T01:48:48.356Z,15.15
2023-04-18T01:49:00.702Z,15.20
2023-04-18T01:49:12.763Z,15.52
2023-04-18T01:49:24.769Z,14.52
2023-04-18T01:49:36.812Z,15.05
2023-04-18T01:49:48.903Z,15.10
2023-04-18T01:50:01.217Z,17.00
2023-04-18T01:50:13.677Z,17.23
2023-04-18T01:50:25.762Z,17.13
2023-04-18T01:50:37.816Z,13.27
2023-04-18T01:50:49.702Z,12.50
2023-04-18T01:51:01.627Z,13.68
2023-04-18T01:51:13.979Z,15.10
2023-04-18T01:51:27.831Z,15.90
2023-04-18T01:51:40.195Z,15.40
2023-04-18T01:51:52.124Z,15.35
2023-04-18T01:52:04.083Z,13.77
2023-04-18T01:52:17.263Z,14.93
2023-04-18T01:52:29.278Z,16.67
2023-04-18T01:52:41.287Z,16.88
2023-04-18T01:52:53.204Z,15.32
2023-04-18T01:53:05.161Z,13.52
2023-04-18T01:53:17.880Z,13.88
2023-04-18T01:53:29.841Z,14.02
2023-04-18T01:53:42.142Z,14.80
2023-04-18T01:53:54.120Z,15.25
2023-04-18T01:54:06.059Z,14.57
2023-04-18T01:54:17.992Z,13.68
2023-04-18T01:54:29.937Z,14.07
2023-04-18T01:54:41.810Z,13.23
2023-04-18T01:54:53.703Z,12.55
2023-04-18T01:55:06.184Z,13.13
2023-04-18T01:55:18.088Z,13.93
2023-04-18T01:55:30.098Z,14.38
2023-04-18T01:55:42.011Z,14.40
2023-04-18T01:55:53.905Z,14.73
2023-04-18T01:56:06.037Z,14.18
2023-04-18T01:56:18.026Z,13.13
2023-04-18T01:56:29.902Z,14.73
2023-04-18T01:56:41.813Z,15.35
2023-04-18T01:56:53.729Z,15.15
2023-04-18T01:57:05.904Z,14.18
2023-04-18T01:57:17.783Z,15.30
2023-04-18T01:57:30.377Z,16.25
2023-04-18T01:57:42.295Z,15.48
2023-04-18T01:57:54.190Z,14.30
2023-04-18T01:58:06.085Z,13.85
2023-04-18T01:58:22.969Z,15.48
2023-04-18T01:58:34.953Z,16.70
2023-04-18T01:58:46.877Z,15.80
2023-04-18T01:58:58.840Z,14.32
2023-04-18T01:59:10.709Z,13.93
2023-04-18T01:59:22.634Z,13.80
2023-04-18T01:59:34.653Z,14.57
2023-04-18T01:59:46.558Z,15.15
2023-04-18T01:59:58.585Z,16.02
2023-04-18T02:00:11.142Z,15.77
2023-04-18T02:00:23.267Z,14.57
2023-04-18T02:00:35.270Z,13.57
2023-04-18T02:00:47.201Z,14.35
2023-04-18T02:00:59.205Z,14.77
2023-04-18T02:01:11.153Z,14.55
2023-04-18T02:01:23.265Z,13.13
2023-04-18T02:01:35.241Z,12.85
2023-04-18T02:01:47.165Z,14.30
2023-04-18T02:01:59.478Z,15.25
2023-04-18T02:02:11.937Z,14.52
2023-04-18T02:02:24.147Z,15.20
2023-04-18T02:02:36.328Z,13.70
2023-04-18T02:02:50.411Z,14.75
2023-04-18T02:03:02.650Z,15.80
2023-04-18T02:03:14.821Z,14.65
2023-04-18T02:03:27.086Z,13.65
2023-04-18T02:03:39.865Z,13.65
2023-04-18T02:03:52.061Z,14.30
2023-04-18T02:04:04.192Z,15.02
2023-04-18T02:04:16.380Z,14.55
2023-04-18T02:04:28.536Z,14.55
2023-04-18T02:04:40.817Z,13.77
2023-04-18T02:04:52.757Z,13.38
2023-04-18T02:05:04.982Z,13.18
2023-04-18T02:05:16.903Z,13.25
2023-04-18T02:05:28.886Z,12.85
2023-04-18T02:05:40.756Z,12.77
2023-04-18T02:05:52.794Z,12.90
2023-04-18T02:06:05.826Z,12.80
2023-04-18T02:06:17.947Z,13.10
2023-04-18T02:06:29.872Z,13.55
2023-04-18T02:06:41.822Z,13.70
2023-04-18T02:06:53.802Z,13.65
2023-04-18T02:07:05.804Z,13.32
2023-04-18T02:07:17.751Z,13.70
2023-04-18T02:07:29.785Z,13.57
2023-04-18T02:07:42.741Z,14.13
2023-04-18T02:07:54.751Z,13.93
2023-04-18T02:08:06.716Z,14.02
2023-04-18T02:08:18.735Z,14.50
2023-04-18T02:08:32.907Z,15.70
2023-04-18T02:08:44.825Z,14.53
2023-04-18T02:08:56.788Z,13.20
2023-04-18T02:09:08.685Z,13.00
2023-04-18T02:09:20.961Z,13.98
2023-04-18T02:09:32.889Z,15.90
2023-04-18T02:09:44.833Z,15.90
2023-04-18T02:09:56.758Z,14.85
2023-04-18T02:10:11.953Z,13.68
2023-04-18T02:10:23.961Z,14.27
2023-04-18T02:10:35.912Z,14.30
2023-04-18T02:10:47.849Z,14.57
2023-04-18T02:11:01.216Z,13.57
2023-04-18T02:11:13.179Z,13.13
2023-04-18T02:11:25.147Z,12.02
2023-04-18T02:11:37.105Z,11.90
2023-04-18T02:11:49.077Z,13.82
2023-04-18T02:12:01.840Z,16.38
2023-04-18T02:12:13.796Z,15.48
2023-04-18T02:12:25.795Z,14.02
2023-04-18T02:12:37.750Z,12.95
2023-04-18T02:12:49.665Z,12.82
2023-04-18T02:13:01.542Z,12.38
2023-04-18T02:13:15.027Z,12.50
2023-04-18T02:13:27.306Z,13.10
2023-04-18T02:13:39.245Z,13.07
2023-04-18T02:13:52.168Z,12.93
2023-04-18T02:14:07.301Z,13.02
2023-04-18T02:14:19.193Z,12.70
2023-04-18T02:14:34.110Z,13.15
2023-04-18T02:14:46.017Z,13.70
2023-04-18T02:14:57.958Z,15.85
2023-04-18T02:15:10.560Z,16.45
2023-04-18T02:15:23.881Z,16.35
2023-04-18T02:15:35.891Z,14.13
2023-04-18T02:15:48.756Z,13.82
2023-04-18T02:16:00.729Z,12.85
2023-04-18T02:16:13.671Z,12.55
2023-04-18T02:16:25.644Z,13.20
2023-04-18T02:16:38.775Z,13.82
2023-04-18T02:16:50.831Z,14.35
2023-04-18T02:17:02.941Z,13.55
2023-04-18T02:17:14.859Z,12.90
2023-04-18T02:17:26.919Z,12.32
2023-04-18T02:17:38.876Z,12.25
2023-04-18T02:17:50.873Z,13.27
2023-04-18T02:18:03.165Z,14.95
2023-04-18T02:18:15.847Z,14.18
2023-04-18T02:18:27.850Z,13.35
2023-04-18T02:18:41.978Z,13.60
2023-04-18T02:18:53.931Z,15.82
2023-04-18T02:19:09.094Z,15.05
2023-04-18T02:19:20.996Z,13.90
2023-04-18T02:19:32.976Z,13.35
2023-04-18T02:19:44.924Z,13.88
2023-04-18T02:19:56.792Z,15.38
2023-04-18T02:20:09.198Z,14.85
2023-04-18T02:20:21.539Z,12.93
2023-04-18T02:20:33.673Z,12.52
2023-04-18T02:20:45.762Z,13.15
2023-04-18T02:20:57.684Z,12.95
2023-04-18T02:21:11.132Z,13.07
2023-04-18T02:21:23.153Z,12.93
2023-04-18T02:21:35.111Z,13.60
2023-04-18T02:21:47.016Z,12.90
2023-04-18T02:21:58.929Z,12.75
2023-04-18T02:22:10.849Z,13.40
2023-04-18T02:22:22.747Z,14.18
2023-04-18T02:22:36.755Z,14.30
2023-04-18T02:22:48.647Z,13.98
2023-04-18T02:23:01.386Z,12.15
2023-04-18T02:23:13.329Z,12.55
2023-04-18T02:23:25.269Z,13.65
2023-04-18T02:23:37.214Z,13.48
2023-04-18T02:23:49.252Z,12.85
2023-04-18T02:24:01.204Z,13.68
2023-04-18T02:24:13.316Z,12.95
2023-04-18T02:24:25.408Z,13.43
2023-04-18T02:24:37.285Z,15.77
2023-04-18T02:24:49.210Z,15.35
2023-04-18T02:25:01.113Z,14.45
2023-04-18T02:25:13.066Z,13.35
2023-04-18T02:25:26.954Z,12.27
2023-04-18T02:25:38.858Z,11.35
2023-04-18T02:25:50.833Z,12.77
2023-04-18T02:26:02.795Z,13.68
2023-04-18T02:26:14.724Z,13.25
2023-04-18T02:26:26.680Z,12.48
2023-04-18T02:26:38.582Z,12.50
2023-04-18T02:26:50.527Z,12.43
2023-04-18T02:27:02.488Z,12.02
2023-04-18T02:27:14.442Z,12.65
2023-04-18T02:27:26.396Z,17.38
2023-04-18T02:27:38.326Z,17.95
2023-04-18T02:27:50.349Z,16.42
2023-04-18T02:28:02.316Z,13.13
2023-04-18T02:28:14.272Z,12.20
2023-04-18T02:28:26.188Z,12.52
2023-04-18T02:28:39.017Z,12.85
2023-04-18T02:28:50.987Z,12.65
2023-04-18T02:29:02.912Z,15.23
2023-04-18T02:29:17.457Z,15.48
2023-04-18T02:29:30.530Z,13.48
2023-04-18T02:29:42.422Z,13.63
2023-04-18T02:29:54.358Z,14.43
2023-04-18T02:30:07.163Z,15.30
2023-04-18T02:30:19.126Z,15.45
2023-04-18T02:30:31.286Z,16.15
2023-04-18T02:30:43.161Z,14.70
2023-04-18T02:30:55.808Z,14.68
2023-04-18T02:31:14.296Z,14.40
2023-04-18T02:31:26.468Z,12.90
2023-04-18T02:31:41.844Z,13.40
2023-04-18T02:31:53.875Z,13.40
2023-04-18T02:32:06.265Z,12.85
2023-04-18T02:32:18.363Z,12.80
2023-04-18T02:32:30.491Z,12.05
2023-04-18T02:32:42.532Z,11.60
2023-04-18T02:32:57.089Z,12.40
2023-04-18T02:33:09.045Z,13.45
2023-04-18T02:33:20.976Z,13.48
2023-04-18T02:33:32.876Z,13.18
2023-04-18T02:33:47.585Z,14.07
2023-04-18T02:33:59.525Z,14.52
2023-04-18T02:34:11.976Z,14.35
2023-04-18T02:34:26.754Z,12.73
2023-04-18T02:34:39.317Z,14.40
2023-04-18T02:34:51.243Z,13.38
2023-04-18T02:35:03.425Z,12.80
2023-04-18T02:35:15.603Z,13.98
2023-04-18T02:35:27.853Z,13.98
2023-04-18T02:35:40.601Z,14.20
2023-04-18T02:35:52.565Z,13.05
2023-04-18T02:36:05.093Z,12.82
2023-04-18T02:36:17.040Z,12.57
2023-04-18T02:36:28.960Z,14.23
2023-04-18T02:36:40.848Z,15.40
2023-04-18T02:36:52.741Z,13.98
2023-04-18T02:37:04.835Z,13.52
2023-04-18T02:37:16.723Z,12.73
2023-04-18T02:37:28.596Z,13.55
2023-04-18T02:37:40.506Z,14.80
2023-04-18T02:37:52.449Z,14.52
2023-04-18T02:38:04.538Z,13.25
2023-04-18T02:38:16.428Z,13.50
2023-04-18T02:38:28.352Z,15.32
2023-04-18T02:38:40.315Z,15.25
2023-04-18T02:38:52.244Z,13.18
2023-04-18T02:39:04.133Z,12.68
2023-04-18T02:39:16.049Z,12.77
2023-04-18T02:39:28.451Z,12.23
2023-04-18T02:39:40.363Z,12.35
2023-04-18T02:39:52.357Z,12.85
2023-04-18T02:40:04.996Z,13.73
2023-04-18T02:40:17.073Z,14.52
2023-04-18T02:40:28.962Z,15.63
2023-04-18T02:40:40.832Z,15.70
2023-04-18T02:40:52.727Z,14.38
2023-04-18T02:41:04.867Z,12.90
2023-04-18T02:41:19.433Z,12.95
2023-04-18T02:41:31.439Z,14.50